createdAt,value
2016-12-24T00:00:43.482Z,101061
2016-12-24T00:01:43.525Z,101051
2016-12-24T00:02:43.019Z,101063
2016-12-24T00:03:43.037Z,101037
2016-12-24T00:04:43.683Z,101028
2016-12-24T00:05:43.752Z,101040
2016-12-24T00:06:43.767Z,101045
2016-12-24T00:07:43.866Z,101051
2016-12-24T00:08:43.913Z,101041
2016-12-24T00:09:43.935Z,101033
2016-12-24T00:10:44.007Z,101037
2016-12-24T00:11:44.036Z,101039
2016-12-24T00:12:43.497Z,101060
2016-12-24T00:13:43.630Z,101058
2016-12-24T00:14:44.258Z,101058
2016-12-24T00:15:44.319Z,101050
2016-12-24T00:16:43.824Z,101055
2016-12-24T00:17:44.430Z,101045
2016-12-24T00:18:43.941Z,101048
2016-12-24T00:19:44.026Z,101035
2016-12-24T00:20:44.578Z,101046
2016-12-24T00:21:44.579Z,101038
2016-12-24T00:22:44.619Z,101026
2016-12-24T00:23:44.194Z,101052
2016-12-24T00:24:44.199Z,101034
2016-12-24T00:25:44.779Z,101052
2016-12-24T00:26:44.800Z,101040
2016-12-24T00:27:44.339Z,101034
2016-12-24T00:28:45.017Z,101023
2016-12-24T00:29:44.485Z,101032
2016-12-24T00:30:45.073Z,101040
2016-12-24T00:31:44.592Z,101036
2016-12-24T00:32:44.540Z,101047
2016-12-24T00:33:45.120Z,101044
2016-12-24T00:34:44.680Z,101028
2016-12-24T00:35:45.214Z,101031
2016-12-24T00:36:44.694Z,101034
2016-12-24T00:37:44.755Z,101028
2016-12-24T00:38:45.329Z,101028
2016-12-24T00:39:44.834Z,101035
2016-12-24T00:40:44.921Z,101028
2016-12-24T00:41:44.888Z,101027
2016-12-24T00:42:45.439Z,101032
2016-12-24T00:43:45.513Z,101034
2016-12-24T00:44:45.570Z,101033
2016-12-24T00:45:45.141Z,101032
2016-12-24T00:46:45.214Z,101032
2016-12-24T00:47:45.782Z,101036
2016-12-24T00:48:45.356Z,101035
2016-12-24T00:49:45.880Z,101036
2016-12-24T00:50:45.920Z,101030
2016-12-24T00:51:46.048Z,101037
2016-12-24T00:52:45.540Z,101038
2016-12-24T00:53:46.178Z,101039
2016-12-24T00:54:46.261Z,101027
2016-12-24T00:55:46.329Z,101032
2016-12-24T00:56:46.396Z,101043
2016-12-24T00:57:46.478Z,101037
2016-12-24T00:58:45.970Z,101044
2016-12-24T00:59:46.573Z,101033
2016-12-24T01:00:46.545Z,101041
2016-12-24T01:01:46.568Z,101037
2016-12-24T01:02:46.035Z,101045
2016-12-24T01:03:46.111Z,101050
2016-12-24T01:04:46.594Z,101053
2016-12-24T01:05:46.618Z,101050
2016-12-24T01:06:46.678Z,101053
2016-12-24T01:07:46.152Z,101051
2016-12-24T01:08:46.239Z,101041
2016-12-24T01:09:46.217Z,101049
2016-12-24T01:10:46.785Z,101049
2016-12-24T01:11:46.338Z,101036
2016-12-24T01:12:46.973Z,101047
2016-12-24T01:13:47.066Z,101048
2016-12-24T01:14:47.045Z,101047
2016-12-24T01:15:47.092Z,101049
2016-12-24T01:16:47.167Z,101050
2016-12-24T01:17:47.137Z,101051
2016-12-24T01:18:46.711Z,101047
2016-12-24T01:19:47.239Z,101050
2016-12-24T01:20:46.812Z,101053
2016-12-24T01:21:47.409Z,101049
2016-12-24T01:22:46.883Z,101041
2016-12-24T01:23:46.968Z,101050
2016-12-24T01:24:47.082Z,101055
2016-12-24T01:25:47.662Z,101054
2016-12-24T01:26:47.724Z,101058
2016-12-24T01:27:47.195Z,101057
2016-12-24T01:28:47.771Z,101056
2016-12-24T01:29:47.251Z,101062
2016-12-24T01:30:47.310Z,101059
2016-12-24T01:31:47.828Z,101056
2016-12-24T01:32:47.341Z,101052
2016-12-24T01:33:47.876Z,101056
2016-12-24T01:34:47.401Z,101052
2016-12-24T01:35:47.928Z,101057
2016-12-24T01:36:47.466Z,101055
2016-12-24T01:37:48.011Z,101054
2016-12-24T01:38:47.430Z,101062
2016-12-24T01:39:48.035Z,101053
2016-12-24T01:40:47.511Z,101055
2016-12-24T01:41:47.541Z,101061
2016-12-24T01:42:47.562Z,101068
2016-12-24T01:43:47.614Z,101065
2016-12-24T01:44:48.166Z,101068
2016-12-24T01:45:48.793Z,101063
2016-12-24T01:46:47.731Z,101060
2016-12-24T01:47:47.776Z,101054
2016-12-24T01:48:48.387Z,101067
2016-12-24T01:49:47.847Z,101061
2016-12-24T01:50:48.410Z,101060
2016-12-24T01:51:47.961Z,101063
2016-12-24T01:52:48.489Z,101062
2016-12-24T01:53:47.949Z,101064
2016-12-24T01:54:48.024Z,101058
2016-12-24T01:55:48.054Z,101064
2016-12-24T01:56:48.591Z,101068
2016-12-24T01:57:48.106Z,101064
2016-12-24T01:58:48.647Z,101063
2016-12-24T01:59:48.710Z,101070
2016-12-24T02:00:48.170Z,101065
2016-12-24T02:01:48.792Z,101066
2016-12-24T02:02:48.308Z,101068
2016-12-24T02:03:48.305Z,101070
2016-12-24T02:04:48.867Z,101068
2016-12-24T02:05:48.941Z,101060
2016-12-24T02:06:48.486Z,101069
2016-12-24T02:07:48.486Z,101057
2016-12-24T02:08:49.093Z,101055
2016-12-24T02:09:48.677Z,101066
2016-12-24T02:10:48.719Z,101071
2016-12-24T02:11:48.662Z,101069
2016-12-24T02:12:48.710Z,101072
2016-12-24T02:13:49.279Z,101076
2016-12-24T02:14:48.713Z,101081
2016-12-24T02:15:48.918Z,101077
2016-12-24T02:16:49.421Z,101075
2016-12-24T02:17:49.437Z,101073
2016-12-24T02:18:48.997Z,101066
2016-12-24T02:19:49.482Z,101070
2016-12-24T02:20:49.065Z,101064
2016-12-24T02:21:49.148Z,101067
2016-12-24T02:22:49.215Z,101066
2016-12-24T02:26:38.078Z,101074
2016-12-24T02:27:38.594Z,101060
2016-12-24T02:28:38.687Z,101068
2016-12-24T02:30:38.292Z,101066
2016-12-24T02:31:38.860Z,101063
2016-12-24T02:32:38.908Z,101067
2016-12-24T02:33:38.940Z,101065
2016-12-24T02:34:38.426Z,101064
2016-12-24T02:35:38.505Z,101067
2016-12-24T02:36:39.121Z,101065
2016-12-24T02:37:39.102Z,101061
2016-12-24T02:38:38.579Z,101056
2016-12-24T02:39:38.654Z,101072
2016-12-24T02:40:38.683Z,101069
2016-12-24T02:41:38.725Z,101071
2016-12-24T02:42:39.247Z,101060
2016-12-24T02:43:39.372Z,101065
2016-12-24T02:44:39.395Z,101066
2016-12-24T02:45:39.493Z,101067
2016-12-24T02:46:39.024Z,101070
2016-12-24T02:47:39.598Z,101072
2016-12-24T02:48:39.153Z,101072
2016-12-24T02:49:39.732Z,101070
2016-12-24T02:50:39.254Z,101069
2016-12-24T02:51:39.867Z,101066
2016-12-24T02:52:39.323Z,101068
2016-12-24T02:53:39.321Z,101064
2016-12-24T02:54:39.421Z,101058
2016-12-24T02:55:39.495Z,101059
2016-12-24T02:56:39.472Z,101066
2016-12-24T02:57:39.587Z,101067
2016-12-24T02:58:39.645Z,101063
2016-12-24T02:59:40.211Z,101067
2016-12-24T03:00:39.724Z,101067
2016-12-24T03:01:39.813Z,101066
2016-12-24T03:02:39.855Z,101075
2016-12-24T03:03:40.475Z,101077
2016-12-24T03:04:39.968Z,101073
2016-12-24T03:05:40.564Z,101066
2016-12-24T03:06:40.055Z,101070
2016-12-24T03:07:40.088Z,101076
2016-12-24T03:08:40.264Z,101067
2016-12-24T03:09:40.269Z,101068
2016-12-24T03:10:40.357Z,101075
2016-12-24T03:11:40.398Z,101072
2016-12-24T03:12:40.923Z,101075
2016-12-24T03:13:40.455Z,101077
2016-12-24T03:14:41.012Z,101077
2016-12-24T03:15:40.589Z,101080
2016-12-24T03:16:41.116Z,101081
2016-12-24T03:17:40.688Z,101073
2016-12-24T03:18:40.665Z,101080
2016-12-24T03:19:41.225Z,101087
2016-12-24T03:20:40.782Z,101082
2016-12-24T03:21:40.729Z,101088
2016-12-24T03:22:40.807Z,101084
2016-12-24T03:23:41.439Z,101087
2016-12-24T03:24:40.975Z,101095
2016-12-24T03:25:41.503Z,101089
2016-12-24T03:26:41.047Z,101091
2016-12-24T03:27:41.636Z,101093
2016-12-24T03:28:41.653Z,101094
2016-12-24T03:29:41.715Z,101095
2016-12-24T03:30:41.800Z,101090
2016-12-24T03:31:41.800Z,101094
2016-12-24T03:32:41.307Z,101090
2016-12-24T03:33:41.884Z,101087
2016-12-24T03:34:41.401Z,101096
2016-12-24T03:35:41.472Z,101102
2016-12-24T03:36:42.152Z,101101
2016-12-24T03:37:42.105Z,101095
2016-12-24T03:38:42.117Z,101100
2016-12-24T03:39:42.168Z,101089
2016-12-24T03:40:41.699Z,101095
2016-12-24T03:41:41.802Z,101098
2016-12-24T03:42:42.420Z,101093
2016-12-24T03:43:41.890Z,101092
2016-12-24T03:44:42.545Z,101090
2016-12-24T03:45:42.126Z,101091
2016-12-24T03:46:42.736Z,101094
2016-12-24T03:47:42.291Z,101082
2016-12-24T03:48:42.839Z,101092
2016-12-24T03:49:42.877Z,101089
2016-12-24T03:50:42.940Z,101092
2016-12-24T03:51:42.416Z,101090
2016-12-24T03:52:43.020Z,101095
2016-12-24T03:53:42.525Z,101093
2016-12-24T03:54:43.155Z,101084
2016-12-24T03:55:43.210Z,101083
2016-12-24T03:56:43.314Z,101090
2016-12-24T03:57:43.283Z,101088
2016-12-24T03:58:42.809Z,101080
2016-12-24T03:59:42.930Z,101073
2016-12-24T04:00:43.002Z,101083
2016-12-24T04:01:43.475Z,101084
2016-12-24T04:02:42.968Z,101083
2016-12-24T04:03:43.011Z,101083
2016-12-24T04:04:43.088Z,101079
2016-12-24T04:05:43.147Z,101086
2016-12-24T04:06:43.778Z,101092
2016-12-24T04:07:43.289Z,101078
2016-12-24T04:08:43.887Z,101089
2016-12-24T04:09:43.851Z,101090
2016-12-24T04:10:43.298Z,101092
2016-12-24T04:11:43.350Z,101092
2016-12-24T04:12:43.953Z,101093
2016-12-24T04:13:43.465Z,101084
2016-12-24T04:14:44.035Z,101086
2016-12-24T04:15:43.562Z,101091
2016-12-24T04:16:43.631Z,101089
2016-12-24T04:17:43.732Z,101094
2016-12-24T04:18:44.275Z,101090
2016-12-24T04:19:43.810Z,101085
2016-12-24T04:20:44.464Z,101087
2016-12-24T04:21:44.483Z,101083
2016-12-24T04:22:43.990Z,101095
2016-12-24T04:23:44.137Z,101086
2016-12-24T04:24:44.762Z,101095
2016-12-24T04:25:44.244Z,101098
2016-12-24T04:26:44.293Z,101102
2016-12-24T04:27:44.885Z,101105
2016-12-24T04:28:44.394Z,101095
2016-12-24T04:29:45.010Z,101092
2016-12-24T04:30:44.533Z,101095
2016-12-24T04:31:45.134Z,101093
2016-12-24T04:32:44.626Z,101095
2016-12-24T04:33:44.685Z,101092
2016-12-24T04:34:45.295Z,101082
2016-12-24T04:35:44.796Z,101085
2016-12-24T04:36:44.934Z,101081
2016-12-24T04:37:45.032Z,101084
2016-12-24T04:38:45.588Z,101091
2016-12-24T04:39:45.633Z,101085
2016-12-24T04:40:45.710Z,101087
2016-12-24T04:41:45.275Z,101088
2016-12-24T04:42:45.361Z,101076
2016-12-24T04:43:45.890Z,101085
2016-12-24T04:44:45.967Z,101086
2016-12-24T04:45:46.726Z,101085
2016-12-24T04:46:46.156Z,101090
2016-12-24T04:47:46.054Z,101089
2016-12-24T04:48:46.114Z,101085
2016-12-24T04:49:46.156Z,101081
2016-12-24T04:50:45.712Z,101088
2016-12-24T04:51:45.663Z,101077
2016-12-24T04:52:45.669Z,101084
2016-12-24T04:53:46.282Z,101079
2016-12-24T04:54:45.749Z,101085
2016-12-24T04:55:46.423Z,101087
2016-12-24T04:56:45.938Z,101094
2016-12-24T04:57:46.557Z,101092
2016-12-24T04:58:46.081Z,101096
2016-12-24T04:59:46.069Z,101094
2016-12-24T05:00:46.659Z,101098
2016-12-24T05:01:46.135Z,101090
2016-12-24T05:02:46.765Z,101096
2016-12-24T05:03:46.803Z,101092
2016-12-24T05:04:46.250Z,101090
2016-12-24T05:05:46.875Z,101080
2016-12-24T05:06:46.948Z,101086
2016-12-24T05:07:47.005Z,101092
2016-12-24T05:08:46.509Z,101097
2016-12-24T05:09:46.513Z,101100
2016-12-24T05:10:47.096Z,101102
2016-12-24T05:11:47.110Z,101097
2016-12-24T05:12:47.135Z,101103
2016-12-24T05:13:46.668Z,101104
2016-12-24T05:14:47.287Z,101111
2016-12-24T05:15:47.316Z,101115
2016-12-24T05:16:47.330Z,101113
2016-12-24T05:17:46.879Z,101116
2016-12-24T05:18:47.450Z,101117
2016-12-24T05:19:47.002Z,101122
2016-12-24T05:20:47.599Z,101109
2016-12-24T05:21:47.625Z,101100
2016-12-24T05:22:47.674Z,101109
2016-12-24T05:23:47.674Z,101105
2016-12-24T05:24:47.762Z,101102
2016-12-24T05:25:47.278Z,101103
2016-12-24T05:26:47.834Z,101105
2016-12-24T05:27:47.932Z,101092
2016-12-24T05:28:47.980Z,101096
2016-12-24T05:29:47.493Z,101106
2016-12-24T05:30:47.520Z,101095
2016-12-24T05:31:48.101Z,101092
2016-12-24T05:32:47.672Z,101092
2016-12-24T05:33:48.215Z,101099
2016-12-24T05:34:48.278Z,101096
2016-12-24T05:35:48.312Z,101090
2016-12-24T05:36:47.835Z,101091
2016-12-24T05:37:48.195Z,101092
2016-12-24T05:38:47.840Z,101089
2016-12-24T05:39:48.434Z,101094
2016-12-24T05:40:47.968Z,101099
2016-12-24T05:41:47.985Z,101100
2016-12-24T05:42:48.596Z,101099
2016-12-24T05:43:48.140Z,101102
2016-12-24T05:44:48.192Z,101105
2016-12-24T05:45:48.220Z,101106
2016-12-24T05:46:48.875Z,101113
2016-12-24T05:47:48.922Z,101095
2016-12-24T05:48:48.401Z,101103
2016-12-24T05:49:48.939Z,101102
2016-12-24T05:50:49.005Z,101089
2016-12-24T05:51:49.057Z,101099
2016-12-24T05:52:48.547Z,101096
2016-12-24T05:53:48.632Z,101095
2016-12-24T05:54:48.680Z,101095
2016-12-24T05:55:49.238Z,101094
2016-12-24T05:56:49.241Z,101097
2016-12-24T05:57:49.280Z,101096
2016-12-24T05:58:49.338Z,101100
2016-12-24T05:59:48.835Z,101096
2016-12-24T06:00:48.886Z,101102
2016-12-24T06:01:49.467Z,101102
2016-12-24T06:02:49.485Z,101104
2016-12-24T06:03:49.564Z,101105
2016-12-24T06:04:49.633Z,101097
2016-12-24T06:05:49.695Z,101096
2016-12-24T06:06:49.746Z,101094
2016-12-24T06:07:49.819Z,101109
2016-12-24T06:08:49.294Z,101106
2016-12-24T06:09:49.384Z,101118
2016-12-24T06:10:49.391Z,101118
2016-12-24T06:11:49.929Z,101119
2016-12-24T06:12:49.955Z,101111
2016-12-24T06:13:50.056Z,101113
2016-12-24T06:14:50.000Z,101115
2016-12-24T06:15:49.502Z,101110
2016-12-24T06:16:49.596Z,101107
2016-12-24T06:17:50.221Z,101117
2016-12-24T06:18:50.358Z,101119
2016-12-24T06:19:50.405Z,101117
2016-12-24T06:20:50.483Z,101121
2016-12-24T06:21:50.563Z,101124
2016-12-24T06:22:50.597Z,101122
2016-12-24T06:23:50.712Z,101126
2016-12-24T06:24:50.240Z,101119
2016-12-24T06:25:50.812Z,101123
2016-12-24T06:26:50.854Z,101126
2016-12-24T06:27:50.372Z,101131
2016-12-24T06:28:50.451Z,101130
2016-12-24T06:29:50.538Z,101137
2016-12-24T06:30:51.157Z,101140
2016-12-24T06:31:50.604Z,101141
2016-12-24T06:32:51.203Z,101135
2016-12-24T06:33:50.720Z,101135
2016-12-24T06:34:51.364Z,101137
2016-12-24T06:35:50.885Z,101131
2016-12-24T06:36:50.960Z,101134
2016-12-24T06:37:51.485Z,101140
2016-12-24T06:38:51.500Z,101141
2016-12-24T06:39:50.994Z,101141
2016-12-24T06:40:51.556Z,101149
2016-12-24T06:41:51.076Z,101155
2016-12-24T06:42:51.179Z,101162
2016-12-24T06:43:51.231Z,101153
2016-12-24T06:44:51.914Z,101158
2016-12-24T06:45:51.435Z,101162
2016-12-24T06:46:51.415Z,101162
2016-12-24T06:47:52.074Z,101163
2016-12-24T06:48:52.111Z,101162
2016-12-24T06:49:51.529Z,101167
2016-12-24T06:50:51.617Z,101162
2016-12-24T06:51:51.676Z,101163
2016-12-24T06:52:51.722Z,101171
2016-12-24T06:53:51.831Z,101165
2016-12-24T06:54:51.948Z,101161
2016-12-24T06:55:52.459Z,101169
2016-12-24T06:56:52.520Z,101165
2016-12-24T06:57:52.089Z,101162
2016-12-24T06:58:52.594Z,101163
2016-12-24T06:59:52.118Z,101164
2016-12-24T07:00:52.692Z,101165
2016-12-24T07:01:52.670Z,101158
2016-12-24T07:02:52.200Z,101157
2016-12-24T07:03:52.285Z,101150
2016-12-24T07:04:52.409Z,101147
2016-12-24T07:05:52.964Z,101138
2016-12-24T07:06:53.011Z,101145
2016-12-24T07:07:53.057Z,101133
2016-12-24T07:08:53.092Z,101131
2016-12-24T07:09:53.090Z,101133
2016-12-24T07:10:52.562Z,101139
2016-12-24T07:11:52.698Z,101138
2016-12-24T07:12:53.290Z,101141
2016-12-24T07:13:53.388Z,101132
2016-12-24T07:14:52.889Z,101149
2016-12-24T07:15:53.547Z,101142
2016-12-24T07:16:53.077Z,101147
2016-12-24T07:17:53.158Z,101147
2016-12-24T07:18:53.199Z,101152
2016-12-24T07:19:53.308Z,101156
2016-12-24T07:20:53.343Z,101156
2016-12-24T07:21:53.970Z,101154
2016-12-24T07:22:53.978Z,101154
2016-12-24T07:23:54.032Z,101158
2016-12-24T07:24:53.546Z,101159
2016-12-24T07:25:54.101Z,101154
2016-12-24T07:26:54.199Z,101155
2016-12-24T07:27:54.258Z,101161
2016-12-24T07:28:53.780Z,101164
2016-12-24T07:29:53.826Z,101159
2016-12-24T07:30:53.864Z,101158
2016-12-24T07:31:53.867Z,101162
2016-12-24T07:32:54.497Z,101162
2016-12-24T07:33:54.010Z,101159
2016-12-24T07:34:54.033Z,101160
2016-12-24T07:35:54.174Z,101167
2016-12-24T07:36:54.166Z,101163
2016-12-24T07:37:54.235Z,101163
2016-12-24T07:38:54.254Z,101149
2016-12-24T07:39:54.886Z,101169
2016-12-24T07:40:54.485Z,101155
2016-12-24T07:41:54.480Z,101156
2016-12-24T07:42:55.026Z,101149
2016-12-24T07:43:54.550Z,101145
2016-12-24T07:44:54.684Z,101141
2016-12-24T07:45:56.673Z,101143
2016-12-24T07:46:54.856Z,101151
2016-12-24T07:47:55.341Z,101144
2016-12-24T07:48:54.923Z,101153
2016-12-24T07:49:54.942Z,101156
2016-12-24T07:50:54.907Z,101161
2016-12-24T07:51:54.971Z,101159
2016-12-24T07:52:54.991Z,101148
2016-12-24T07:53:55.023Z,101157
2016-12-24T07:54:55.627Z,101156
2016-12-24T07:55:55.729Z,101153
2016-12-24T07:56:55.267Z,101148
2016-12-24T07:57:55.341Z,101145
2016-12-24T07:58:55.361Z,101145
2016-12-24T07:59:55.373Z,101142
2016-12-24T08:00:55.985Z,101140
2016-12-24T08:01:55.995Z,101136
2016-12-24T08:02:55.550Z,101143
2016-12-24T08:03:55.649Z,101134
2016-12-24T08:04:56.250Z,101128
2016-12-24T08:05:56.306Z,101122
2016-12-24T08:06:55.833Z,101110
2016-12-24T08:07:56.425Z,101105
2016-12-24T08:08:56.367Z,101101
2016-12-24T08:09:55.956Z,101099
2016-12-24T08:10:55.904Z,101096
2016-12-24T08:11:56.517Z,101098
2016-12-24T08:12:55.969Z,101088
2016-12-24T08:13:56.018Z,101094
2016-12-24T08:14:56.093Z,101098
2016-12-24T08:15:56.210Z,101098
2016-12-24T08:16:56.224Z,101104
2016-12-24T08:17:56.804Z,101116
2016-12-24T08:18:56.818Z,101112
2016-12-24T08:19:56.301Z,101120
2016-12-24T08:20:56.908Z,101123
2016-12-24T08:21:56.962Z,101121
2016-12-24T08:22:56.957Z,101130
2016-12-24T08:23:57.014Z,101130
2016-12-24T08:24:56.467Z,101132
2016-12-24T08:25:56.530Z,101133
2016-12-24T08:26:56.538Z,101140
2016-12-24T08:27:56.677Z,101133
2016-12-24T08:28:57.205Z,101143
2016-12-24T08:29:57.219Z,101151
2016-12-24T08:30:56.707Z,101148
2016-12-24T08:31:56.761Z,101149
2016-12-24T08:32:57.958Z,101153
2016-12-24T08:33:56.937Z,101148
2016-12-24T08:34:57.001Z,101139
2016-12-24T08:35:56.982Z,101146
2016-12-24T08:36:57.030Z,101132
2016-12-24T08:37:57.665Z,101137
2016-12-24T08:38:57.766Z,101134
2016-12-24T08:39:57.791Z,101132
2016-12-24T08:40:57.305Z,101136
2016-12-24T08:41:57.941Z,101141
2016-12-24T08:42:58.010Z,101131
2016-12-24T08:43:58.039Z,101130
2016-12-24T08:44:58.107Z,101132
2016-12-24T08:45:57.735Z,101134
2016-12-24T08:46:58.281Z,101140
2016-12-24T08:47:58.290Z,101139
2016-12-24T08:48:59.027Z,101142
2016-12-24T08:49:57.849Z,101147
2016-12-24T08:50:58.473Z,101146
2016-12-24T08:51:58.500Z,101160
2016-12-24T08:52:58.016Z,101165
2016-12-24T08:53:58.567Z,101175
2016-12-24T08:54:58.700Z,101171
2016-12-24T08:55:58.209Z,101170
2016-12-24T08:56:58.889Z,101172
2016-12-24T08:57:58.937Z,101182
2016-12-24T08:58:58.438Z,101184
2016-12-24T08:59:58.941Z,101182
2016-12-24T09:00:58.510Z,101177
2016-12-24T09:01:58.565Z,101191
2016-12-24T09:02:58.610Z,101198
2016-12-24T09:03:59.146Z,101207
2016-12-24T09:04:59.182Z,101208
2016-12-24T09:05:59.191Z,101217
2016-12-24T09:06:58.759Z,101207
2016-12-24T09:07:58.795Z,101208
2016-12-24T09:08:59.361Z,101207
2016-12-24T09:09:58.793Z,101206
2016-12-24T09:10:58.801Z,101212
2016-12-24T09:11:59.464Z,101220
2016-12-24T09:12:58.977Z,101214
2016-12-24T09:13:59.503Z,101213
2016-12-24T09:14:59.533Z,101211
2016-12-24T09:15:59.588Z,101209
2016-12-24T09:16:59.630Z,101203
2016-12-24T09:17:59.700Z,101209
2016-12-24T09:18:59.142Z,101205
2016-12-24T09:19:59.790Z,101205
2016-12-24T09:20:59.889Z,101209
2016-12-24T09:21:59.364Z,101211
2016-12-24T09:22:59.419Z,101212
2016-12-24T09:23:59.431Z,101212
2016-12-24T09:24:59.962Z,101226
2016-12-24T09:26:00.028Z,101222
2016-12-24T09:27:00.086Z,101229
2016-12-24T09:27:59.581Z,101226
2016-12-24T09:28:59.699Z,101231
2016-12-24T09:30:00.245Z,101229
2016-12-24T09:30:59.782Z,101224
2016-12-24T09:31:59.756Z,101216
2016-12-24T09:32:59.819Z,101209
2016-12-24T09:34:00.398Z,101205
2016-12-24T09:34:59.931Z,101192
2016-12-24T09:35:59.978Z,101182
2016-12-24T09:37:00.097Z,101191
2016-12-24T09:38:00.037Z,101184
2016-12-24T09:39:00.113Z,101187
2016-12-24T09:40:00.179Z,101188
2016-12-24T09:41:00.779Z,101189
2016-12-24T09:42:00.793Z,101175
2016-12-24T09:43:00.338Z,101181
2016-12-24T09:44:00.901Z,101189
2016-12-24T09:45:00.927Z,101201
2016-12-24T09:46:01.788Z,101202
2016-12-24T09:47:01.199Z,101197
2016-12-24T09:48:01.046Z,101197
2016-12-24T09:49:01.192Z,101198
2016-12-24T09:50:01.204Z,101207
2016-12-24T09:51:00.721Z,101195
2016-12-24T09:52:01.270Z,101201
2016-12-24T09:53:01.381Z,101203
2016-12-24T09:54:01.394Z,101199
2016-12-24T09:55:01.534Z,101198
2016-12-24T09:56:01.574Z,101205
2016-12-24T09:57:01.083Z,101205
2016-12-24T09:58:01.178Z,101208
2016-12-24T09:59:01.741Z,101209
2016-12-24T10:00:01.815Z,101213
2016-12-24T10:01:01.871Z,101210
2016-12-24T10:02:01.889Z,101210
2016-12-24T10:03:01.432Z,101206
2016-12-24T10:04:02.018Z,101213
2016-12-24T10:05:01.571Z,101215
2016-12-24T10:06:02.041Z,101211
2016-12-24T10:07:02.079Z,101208
2016-12-24T10:08:01.576Z,101214
2016-12-24T10:09:02.203Z,101215
2016-12-24T10:10:01.698Z,101210
2016-12-24T10:11:01.721Z,101205
2016-12-24T10:12:02.396Z,101209
2016-12-24T10:13:01.905Z,101215
2016-12-24T10:14:02.492Z,101216
2016-12-24T10:15:02.525Z,101216
2016-12-24T10:16:02.646Z,101216
2016-12-24T10:17:02.192Z,101208
2016-12-24T10:18:02.820Z,101208
2016-12-24T10:19:02.843Z,101206
2016-12-24T10:20:02.283Z,101209
2016-12-24T10:21:02.321Z,101206
2016-12-24T10:22:02.921Z,101209
2016-12-24T10:23:02.417Z,101201
2016-12-24T10:24:02.987Z,101195
2016-12-24T10:25:03.116Z,101202
2016-12-24T10:26:03.139Z,101209
2016-12-24T10:27:03.211Z,101204
2016-12-24T10:28:03.183Z,101200
2016-12-24T10:29:02.737Z,101212
2016-12-24T10:30:02.735Z,101215
2016-12-24T10:31:02.735Z,101204
2016-12-24T10:32:03.355Z,101215
2016-12-24T10:33:03.363Z,101209
2016-12-24T10:34:03.433Z,101204
2016-12-24T10:35:03.565Z,101198
2016-12-24T10:36:03.626Z,101194
2016-12-24T10:37:03.638Z,101202
2016-12-24T10:38:03.119Z,101199
2016-12-24T10:39:03.211Z,101206
2016-12-24T10:40:03.188Z,101208
2016-12-24T10:41:03.332Z,101204
2016-12-24T10:42:03.861Z,101202
2016-12-24T10:43:03.966Z,101197
2016-12-24T10:44:04.031Z,101200
2016-12-24T10:45:03.538Z,101203
2016-12-24T10:46:04.131Z,101200
2016-12-24T10:47:04.231Z,101181
2016-12-24T10:48:04.301Z,101193
2016-12-24T10:49:05.842Z,101192
2016-12-24T10:50:04.452Z,101177
2016-12-24T10:51:03.986Z,101192
2016-12-24T10:52:03.972Z,101188
2016-12-24T10:53:04.101Z,101190
2016-12-24T10:54:04.640Z,101184
2016-12-24T10:55:04.722Z,101176
2016-12-24T10:56:04.186Z,101182
2016-12-24T10:57:04.758Z,101183
2016-12-24T10:58:04.291Z,101171
2016-12-24T10:59:04.367Z,101174
2016-12-24T11:00:04.318Z,101175
2016-12-24T11:01:04.952Z,101174
2016-12-24T11:02:04.420Z,101169
2016-12-24T11:03:04.544Z,101170
2016-12-24T11:04:04.604Z,101173
2016-12-24T11:05:04.670Z,101168
2016-12-24T11:06:04.724Z,101174
2016-12-24T11:07:04.789Z,101174
2016-12-24T11:08:04.881Z,101182
2016-12-24T11:09:05.510Z,101182
2016-12-24T11:10:05.549Z,101182
2016-12-24T11:11:05.579Z,101187
2016-12-24T11:12:05.602Z,101179
2016-12-24T11:13:05.088Z,101181
2016-12-24T11:14:05.238Z,101169
2016-12-24T11:15:05.865Z,101177
2016-12-24T11:16:05.832Z,101183
2016-12-24T11:17:05.940Z,101184
2016-12-24T11:18:05.387Z,101190
2016-12-24T11:19:05.537Z,101195
2016-12-24T11:20:06.118Z,101181
2016-12-24T11:21:05.663Z,101190
2016-12-24T11:22:06.240Z,101192
2016-12-24T11:23:05.810Z,101186
2016-12-24T11:24:06.453Z,101192
2016-12-24T11:25:06.482Z,101200
2016-12-24T11:26:06.032Z,101195
2016-12-24T11:27:06.091Z,101198
2016-12-24T11:28:06.093Z,101200
2016-12-24T11:29:06.685Z,101185
2016-12-24T11:30:06.206Z,101187
2016-12-24T11:31:06.276Z,101173
2016-12-24T11:32:06.890Z,101180
2016-12-24T11:33:06.317Z,101179
2016-12-24T11:34:06.388Z,101184
2016-12-24T11:35:06.953Z,101181
2016-12-24T11:36:06.433Z,101187
2016-12-24T11:37:06.497Z,101190
2016-12-24T11:38:07.141Z,101194
2016-12-24T11:39:06.595Z,101199
2016-12-24T11:40:07.217Z,101194
2016-12-24T11:41:07.274Z,101203
2016-12-24T11:42:07.317Z,101199
2016-12-24T11:43:06.803Z,101200
2016-12-24T11:44:06.922Z,101183
2016-12-24T11:45:06.948Z,101189
2016-12-24T11:46:07.057Z,101187
2016-12-24T11:47:07.639Z,101194
2016-12-24T11:48:07.740Z,101199
2016-12-24T11:49:07.895Z,101198
2016-12-24T11:50:07.314Z,101210
2016-12-24T11:51:07.423Z,101209
2016-12-24T11:52:07.446Z,101206
2016-12-24T11:53:07.979Z,101206
2016-12-24T11:54:07.550Z,101203
2016-12-24T11:55:07.559Z,101206
2016-12-24T11:56:08.148Z,101197
2016-12-24T11:57:08.231Z,101209
2016-12-24T11:58:08.297Z,101203
2016-12-24T11:59:08.405Z,101197
2016-12-24T12:00:08.400Z,101211
2016-12-24T12:01:08.531Z,101202
2016-12-24T12:02:08.024Z,101201
2016-12-24T12:03:08.603Z,101188
2016-12-24T12:04:08.735Z,101189
2016-12-24T12:05:08.834Z,101175
2016-12-24T12:06:08.367Z,101177
2016-12-24T12:07:08.416Z,101175
2016-12-24T12:08:08.460Z,101187
2016-12-24T12:09:08.507Z,101188
2016-12-24T12:10:08.459Z,101184
2016-12-24T12:11:08.603Z,101183
2016-12-24T12:12:09.180Z,101187
2016-12-24T12:13:09.217Z,101189
2016-12-24T12:14:08.731Z,101178
2016-12-24T12:15:08.727Z,101186
2016-12-24T12:16:09.270Z,101171
2016-12-24T12:17:08.825Z,101180
2016-12-24T12:18:09.491Z,101184
2016-12-24T12:19:09.556Z,101168
2016-12-24T12:20:09.113Z,101161
2016-12-24T12:21:09.685Z,101165
2016-12-24T12:22:09.245Z,101169
2016-12-24T12:23:09.377Z,101163
2016-12-24T12:24:10.002Z,101168
2016-12-24T12:25:09.541Z,101175
2016-12-24T12:26:10.073Z,101160
2016-12-24T12:27:09.636Z,101170
2016-12-24T12:28:09.675Z,101168
2016-12-24T12:29:10.223Z,101163
2016-12-24T12:30:10.261Z,101155
2016-12-24T12:31:10.265Z,101161
2016-12-24T12:32:10.353Z,101162
2016-12-24T12:33:10.373Z,101167